Currently 56°F in Moreno Valley, California, USA
56°F
56°F / 54°F
calm
0.00"
Wednesday, November 14, 2018 12:49 AM PST

Moreno Valley, California Weather Summary
Last 36 Hours

Temperature Winds Hourly Humidity Dewpoint
Time Report Norm Report Norm Max Gusts Precip. Rpt. Norm Rpt. Norm Pressure
1Wed 12:49 AM  55.6°F  55°F  calm  1 mph  none  0.00"  24%  56%  18°F  40°F  28.41"
2Wed 12:46 AM  55.6°F  55°F  calm  1 mph  none  ----  25%  56%  19°F  40°F  28.41"
3Wed 12:00 AM  53.7°F  56°F  calm  1 mph  4 mph  0.00"  27%  56%  19°F  40°F  28.43"
Tue 11:00 PM  51.8°F  56°F  calm  1 mph  none  0.00"  31%  57%  21°F  40°F  28.43"
Tue 10:00 PM  52.8°F  57°F  calm  1 mph  4 mph  0.00"  29%  55%  20°F  40°F  28.43"
Tue 09:00 PM  53.5°F  58°F  calm  1 mph  4 mph  0.00"  30%  53%  21°F  40°F  28.43"
Tue 08:00 PM  55.8°F  59°F  3 mph SE  2 mph  7 mph  0.00"  26%  50%  20°F  40°F  28.41"
Tue 07:00 PM  59.4°F  61°F  calm  2 mph  5 mph  0.00"  23%  47%  20°F  40°F  28.40"
Tue 06:00 PM  61.4°F  63°F  calm  3 mph  13 mph  0.00"  22%  44%  20°F  40°F  28.40"
Tue 05:00 PM  63.0°F  66°F  7 mph E  3 mph  17 mph  0.00"  19%  39%  19°F  40°F  28.40"
Tue 04:00 PM  66.1°F  71°F  12 mph SE  5 mph  19 mph  0.00"  18%  33%  19°F  39°F  28.40"
Tue 03:00 PM  66.7°F  73°F  9 mph SE  5 mph  18 mph  0.00"  18%  30%  20°F  39°F  28.41"
Tue 02:00 PM  70.6°F  74°F  9 mph SE  5 mph  15 mph  0.00"  15%  29%  19°F  39°F  28.41"
Tue 01:00 PM  70.2°F  74°F  5 mph SE  4 mph  18 mph  0.00"  15%  30%  19°F  39°F  28.43"
Tue 12:00 PM  69.8°F  72°F  10 mph E  4 mph  17 mph  0.00"  15%  32%  19°F  40°F  28.44"
Tue 11:00 AM  67.5°F  70°F  9 mph E  3 mph  20 mph  0.00"  16%  35%  18°F  41°F  28.48"
Tue 10:00 AM  64.7°F  67°F  6 mph E  3 mph  18 mph  0.00"  17%  41%  18°F  42°F  28.49"
Tue 09:00 AM  63.3°F  64°F  3 mph W  2 mph  12 mph  0.00"  19%  47%  18°F  43°F  28.49"
Tue 08:00 AM  61.0°F  61°F  3 mph E  2 mph  16 mph  0.00"  18%  52%  15°F  42°F  28.49"
Tue 07:00 AM  55.3°F  55°F  1 mph N  1 mph  11 mph  0.00"  24%  58%  17°F  40°F  28.49"
Tue 06:00 AM  49.4°F  54°F  calm  1 mph  5 mph  0.00"  26%  58%  15°F  39°F  28.48"
Tue 05:00 AM  49.9°F  55°F  calm  1 mph  6 mph  0.00"  27%  58%  16°F  39°F  28.47"
Tue 04:00 AM  48.1°F  55°F  calm  1 mph  5 mph  0.00"  29%  58%  16°F  40°F  28.46"
Tue 03:00 AM  51.3°F  55°F  2 mph E  1 mph  7 mph  0.00"  25%  58%  15°F  40°F  28.46"
Tue 02:00 AM  48.8°F  55°F  calm  1 mph  4 mph  0.00"  28%  58%  16°F  40°F  28.47"
Tue 01:00 AM  49.8°F  56°F  2 mph N  1 mph  4 mph  0.00"  27%  57%  15°F  40°F  28.47"
Tue 12:00 AM  49.0°F  56°F  3 mph E  1 mph  7 mph  0.00"  27%  57%  15°F  41°F  28.46"
Mon 11:00 PM  54.2°F  56°F  calm  1 mph  7 mph  0.00"  23%  57%  16°F  41°F  28.46"
Mon 10:00 PM  56.2°F  57°F  calm  1 mph  14 mph  0.00"  21%  56%  15°F  41°F  28.46"
Mon 09:00 PM  56.9°F  58°F  calm  1 mph  7 mph  0.00"  20%  54%  14°F  41°F  28.46"
Mon 08:00 PM  58.2°F  60°F  calm  2 mph  11 mph  0.00"  20%  51%  16°F  41°F  28.44"
Mon 07:00 PM  60.0°F  61°F  calm  2 mph  13 mph  0.00"  19%  48%  15°F  41°F  28.43"
Mon 06:00 PM  60.5°F  63°F  8 mph E  2 mph  15 mph  0.00"  18%  45%  15°F  41°F  28.40"
Mon 05:00 PM  62.2°F  66°F  9 mph E  3 mph  17 mph  0.00"  17%  40%  15°F  40°F  28.38"
Mon 04:00 PM  67.0°F  71°F  4 mph E  5 mph  19 mph  0.00"  16%  34%  17°F  40°F  28.36"
Mon 03:00 PM  68.9°F  74°F  10 mph E  4 mph  20 mph  0.00"  15%  31%  18°F  40°F  28.35"
Mon 02:00 PM  69.7°F  75°F  10 mph SE  5 mph  17 mph  0.00"  15%  29%  17°F  39°F  28.34"
Mon 01:00 PM  70.5°F  74°F  10 mph SE  4 mph  20 mph  0.00"  14%  30%  17°F  40°F  28.35"
Mon 12:00 PM  70.3°F  73°F  7 mph E  4 mph  18 mph  0.00"  14%  32%  17°F  40°F  28.37"

  1. Current weather data. No green row appears if the current weather data is also the high or low for the current day.
  2. High temperature for the current day.
  3. Low temperature for the current day.

The Moreno Valley, California weather pages are a service of WeatherCurrents. Moreno Valley is located in Southern California's Inland Empire, east of Riverside and north of Perris, along the State Route 60 freeway.
Copyright ©Wed Nov 14 00:49:48 PST 2018  WeatherCurrents. All rights reserved. - Submit questions and comments - Privacy Policy

This page automatically refreshes every 10 minutes.